createdAt,value
2018-12-27T00:00:17.116Z,4.80
2018-12-27T00:02:54.834Z,5.00
2018-12-27T00:05:22.884Z,5.00
2018-12-27T00:07:54.409Z,4.85
2018-12-27T00:10:27.005Z,5.53
2018-12-27T00:12:58.289Z,5.05
2018-12-27T00:15:29.617Z,5.33
2018-12-27T00:18:01.110Z,5.72
2018-12-27T00:20:32.489Z,4.70
2018-12-27T00:23:03.912Z,4.97
2018-12-27T00:25:35.499Z,5.40
2018-12-27T00:28:06.877Z,5.30
2018-12-27T00:30:38.328Z,5.40
2018-12-27T00:33:09.912Z,4.92
2018-12-27T00:35:41.368Z,4.62
2018-12-27T00:38:12.628Z,4.95
2018-12-27T00:40:44.033Z,4.50
2018-12-27T00:43:15.295Z,4.60
2018-12-27T00:45:46.566Z,4.72
2018-12-27T00:48:17.807Z,5.20
2018-12-27T00:50:49.292Z,5.25
2018-12-27T00:53:20.814Z,5.70
2018-12-27T00:55:52.281Z,5.10
2018-12-27T00:58:23.677Z,4.95
2018-12-27T01:00:54.951Z,5.33
2018-12-27T01:03:26.349Z,4.47
2018-12-27T01:05:57.885Z,4.33
2018-12-27T01:08:29.285Z,4.95
2018-12-27T01:11:00.892Z,5.10
2018-12-27T01:13:32.393Z,4.10
2018-12-27T01:16:03.864Z,4.78
2018-12-27T01:18:35.310Z,4.90
2018-12-27T01:21:06.857Z,5.00
2018-12-27T01:23:38.299Z,5.10
2018-12-27T01:26:09.904Z,4.92
2018-12-27T01:28:41.352Z,4.40
2018-12-27T01:31:12.846Z,4.55
2018-12-27T01:33:44.303Z,5.20
2018-12-27T01:36:15.891Z,5.17
2018-12-27T01:38:47.129Z,4.90
2018-12-27T01:41:18.725Z,5.03
2018-12-27T01:43:50.320Z,5.10
2018-12-27T01:46:21.818Z,5.25
2018-12-27T01:48:53.047Z,5.65
2018-12-27T01:51:24.496Z,4.85
2018-12-27T01:53:55.841Z,5.20
2018-12-27T01:56:27.331Z,5.20
2018-12-27T01:58:58.708Z,5.37
2018-12-27T02:01:30.182Z,5.92
2018-12-27T02:04:01.611Z,5.28
2018-12-27T02:06:33.133Z,5.83
2018-12-27T02:09:05.405Z,5.95
2018-12-27T02:11:37.115Z,5.92
2018-12-27T02:14:08.349Z,6.20
2018-12-27T02:16:39.871Z,5.60
2018-12-27T02:19:11.289Z,5.95
2018-12-27T02:21:42.827Z,5.65
2018-12-27T02:24:14.323Z,5.53
2018-12-27T02:26:45.944Z,5.80
2018-12-27T02:29:17.513Z,6.08
2018-12-27T02:31:49.044Z,5.67
2018-12-27T02:34:20.381Z,5.33
2018-12-27T02:36:52.049Z,5.53
2018-12-27T02:39:23.572Z,5.40
2018-12-27T02:41:54.927Z,5.67
2018-12-27T02:44:26.348Z,5.78
2018-12-27T02:46:58.039Z,5.50
2018-12-27T02:49:29.285Z,6.03
2018-12-27T02:52:00.756Z,5.53
2018-12-27T02:54:32.340Z,6.00
2018-12-27T02:57:03.782Z,6.35
2018-12-27T02:59:35.349Z,5.87
2018-12-27T03:02:06.884Z,5.92
2018-12-27T03:04:38.131Z,5.35
2018-12-27T03:07:09.692Z,5.47
2018-12-27T03:09:41.026Z,5.83
2018-12-27T03:12:12.365Z,5.30
2018-12-27T03:14:43.944Z,5.58
2018-12-27T03:17:15.564Z,5.58
2018-12-27T03:19:47.066Z,5.15
2018-12-27T03:22:18.651Z,5.55
2018-12-27T03:24:50.146Z,5.72
2018-12-27T03:27:21.688Z,5.40
2018-12-27T03:29:53.245Z,5.58
2018-12-27T03:32:24.516Z,5.92
2018-12-27T03:34:55.909Z,5.75
2018-12-27T03:37:27.173Z,5.28
2018-12-27T03:39:58.410Z,5.60
2018-12-27T03:42:29.960Z,5.35
2018-12-27T03:45:01.201Z,5.95
2018-12-27T03:47:32.558Z,6.22
2018-12-27T03:50:04.056Z,5.70
2018-12-27T03:52:35.615Z,5.33
2018-12-27T03:55:07.196Z,5.42
2018-12-27T03:57:38.883Z,6.08
2018-12-27T04:00:10.396Z,5.80
2018-12-27T04:02:41.921Z,6.20
2018-12-27T04:05:13.355Z,6.10
2018-12-27T04:07:44.958Z,5.35
2018-12-27T04:10:16.373Z,5.47
2018-12-27T04:12:48.074Z,5.65
2018-12-27T04:15:19.433Z,5.75
2018-12-27T04:17:50.785Z,6.78
2018-12-27T04:20:22.315Z,6.87
2018-12-27T04:22:53.876Z,6.90
2018-12-27T04:25:25.957Z,6.95
2018-12-27T04:27:57.406Z,7.85
2018-12-27T04:30:28.919Z,6.78
2018-12-27T04:33:00.347Z,7.62
2018-12-27T04:35:31.996Z,7.72
2018-12-27T04:38:03.334Z,7.30
2018-12-27T04:40:35.833Z,7.33
2018-12-27T04:43:07.557Z,6.72
2018-12-27T04:45:39.001Z,8.30
2018-12-27T04:48:10.414Z,7.30
2018-12-27T04:50:41.828Z,7.87
2018-12-27T04:53:13.020Z,8.40
2018-12-27T04:55:44.155Z,8.13
2018-12-27T04:58:15.326Z,10.03
2018-12-27T05:00:46.461Z,7.75
2018-12-27T05:03:17.827Z,7.55
2018-12-27T05:05:48.935Z,7.30
2018-12-27T05:08:20.550Z,7.78
2018-12-27T05:10:51.966Z,7.80
2018-12-27T05:13:23.579Z,8.55
2018-12-27T05:15:54.797Z,7.67
2018-12-27T05:18:26.177Z,8.58
2018-12-27T05:20:57.630Z,10.20
2018-12-27T05:23:29.071Z,8.88
2018-12-27T05:26:00.390Z,9.20
2018-12-27T05:28:31.829Z,10.25
2018-12-27T05:31:03.561Z,10.00
2018-12-27T05:33:34.945Z,8.40
2018-12-27T05:36:06.228Z,8.90
2018-12-27T05:38:37.900Z,8.60
2018-12-27T05:41:09.037Z,9.53
2018-12-27T05:43:40.469Z,9.20
2018-12-27T05:46:11.815Z,9.68
2018-12-27T05:48:43.162Z,8.95
2018-12-27T05:51:14.979Z,9.83
2018-12-27T05:53:46.358Z,9.90
2018-12-27T05:56:17.682Z,12.43
2018-12-27T05:58:49.094Z,10.85
2018-12-27T06:01:20.410Z,10.72
2018-12-27T06:03:51.811Z,9.35
2018-12-27T06:06:23.155Z,9.35
2018-12-27T06:08:54.636Z,9.65
2018-12-27T06:11:25.881Z,10.00
2018-12-27T06:13:57.332Z,10.20
2018-12-27T06:16:28.718Z,9.35
2018-12-27T06:19:00.242Z,9.63
2018-12-27T06:21:31.513Z,9.10
2018-12-27T06:24:02.908Z,9.50
2018-12-27T06:26:34.193Z,9.48
2018-12-27T06:29:05.726Z,11.05
2018-12-27T06:31:37.088Z,10.93
2018-12-27T06:34:08.554Z,10.43
2018-12-27T06:36:39.997Z,10.93
2018-12-27T06:39:11.313Z,9.70
2018-12-27T06:41:42.595Z,11.73
2018-12-27T06:44:13.946Z,11.53
2018-12-27T06:46:45.286Z,11.63
2018-12-27T06:49:16.675Z,12.10
2018-12-27T06:51:48.029Z,10.55
2018-12-27T06:54:19.599Z,12.13
2018-12-27T06:56:51.084Z,12.70
2018-12-27T06:59:22.543Z,12.10
2018-12-27T07:01:54.046Z,13.05
2018-12-27T07:04:25.341Z,12.53
2018-12-27T07:06:56.470Z,12.00
2018-12-27T07:09:27.671Z,12.80
2018-12-27T07:11:59.013Z,12.23
2018-12-27T07:14:30.496Z,12.05
2018-12-27T07:17:01.840Z,14.10
2018-12-27T07:19:33.203Z,13.00
2018-12-27T07:22:04.495Z,11.75
2018-12-27T07:24:35.966Z,12.58
2018-12-27T07:27:07.457Z,12.93
2018-12-27T07:29:38.775Z,12.75
2018-12-27T07:32:10.292Z,13.50
2018-12-27T07:34:41.656Z,13.72
2018-12-27T07:37:12.757Z,14.10
2018-12-27T07:39:43.974Z,13.90
2018-12-27T07:42:18.362Z,15.68
2018-12-27T07:44:49.770Z,12.58
2018-12-27T07:47:21.187Z,13.65
2018-12-27T07:49:52.552Z,12.70
2018-12-27T07:52:23.902Z,12.90
2018-12-27T07:54:55.520Z,12.50
2018-12-27T07:57:26.767Z,14.33
2018-12-27T07:59:58.405Z,15.15
2018-12-27T08:02:29.816Z,13.53
2018-12-27T08:05:04.135Z,13.15
2018-12-27T08:07:34.476Z,14.28
2018-12-27T08:10:06.380Z,13.43
2018-12-27T08:12:37.738Z,13.15
2018-12-27T08:15:09.216Z,12.37
2018-12-27T08:17:40.462Z,13.75
2018-12-27T08:20:11.792Z,12.82
2018-12-27T08:22:43.163Z,14.13
2018-12-27T08:25:14.374Z,14.70
2018-12-27T08:27:45.623Z,14.15
2018-12-27T08:30:17.045Z,13.68
2018-12-27T08:32:48.463Z,13.20
2018-12-27T08:35:19.677Z,13.40
2018-12-27T08:37:50.950Z,12.65
2018-12-27T08:40:22.113Z,12.40
2018-12-27T08:42:53.169Z,12.60
2018-12-27T08:45:24.632Z,13.38
2018-12-27T08:47:58.333Z,11.18
2018-12-27T08:50:29.829Z,12.35
2018-12-27T08:53:02.303Z,12.68
2018-12-27T08:55:34.442Z,10.55
2018-12-27T08:58:05.888Z,12.88
2018-12-27T09:00:37.206Z,11.50
2018-12-27T09:03:08.624Z,11.35
2018-12-27T09:05:39.821Z,12.65
2018-12-27T09:08:11.155Z,11.05
2018-12-27T09:10:42.494Z,12.43
2018-12-27T09:13:13.674Z,12.05
2018-12-27T09:15:44.816Z,11.18
2018-12-27T09:18:15.921Z,12.47
2018-12-27T09:20:47.008Z,11.60
2018-12-27T09:23:18.327Z,12.65
2018-12-27T09:25:49.643Z,12.05
2018-12-27T09:28:21.042Z,12.35
2018-12-27T09:30:52.618Z,12.82
2018-12-27T09:33:23.756Z,12.98
2018-12-27T09:35:55.222Z,12.85
2018-12-27T09:38:26.517Z,14.53
2018-12-27T09:40:57.890Z,12.25
2018-12-27T09:43:29.238Z,12.28
2018-12-27T09:46:00.814Z,11.75
2018-12-27T09:48:32.210Z,12.33
2018-12-27T09:51:03.574Z,9.65
2018-12-27T09:53:34.888Z,12.60
2018-12-27T09:56:07.524Z,11.53
2018-12-27T09:58:39.067Z,12.53
2018-12-27T10:01:11.043Z,12.35
2018-12-27T10:03:42.308Z,12.33
2018-12-27T10:06:13.685Z,12.98
2018-12-27T10:08:45.132Z,13.58
2018-12-27T10:11:16.405Z,13.58
2018-12-27T10:13:47.837Z,13.88
2018-12-27T10:16:19.370Z,12.05
2018-12-27T10:18:50.720Z,13.10
2018-12-27T10:21:22.084Z,12.93
2018-12-27T10:23:53.359Z,12.18
2018-12-27T10:26:24.776Z,12.90
2018-12-27T10:28:56.137Z,13.32
2018-12-27T10:31:28.612Z,13.62
2018-12-27T10:33:59.878Z,13.70
2018-12-27T10:36:31.365Z,14.20
2018-12-27T10:39:08.475Z,12.85
2018-12-27T10:41:39.759Z,13.18
2018-12-27T10:44:11.294Z,11.68
2018-12-27T10:46:42.673Z,13.13
2018-12-27T10:49:14.139Z,12.75
2018-12-27T10:51:45.601Z,13.28
2018-12-27T10:54:16.929Z,14.25
2018-12-27T10:56:48.452Z,14.35
2018-12-27T10:59:19.947Z,14.55
2018-12-27T11:01:51.467Z,13.20
2018-12-27T11:04:23.887Z,12.90
2018-12-27T11:06:56.845Z,11.97
2018-12-27T11:09:28.157Z,12.88
2018-12-27T11:11:59.647Z,11.97
2018-12-27T11:14:30.734Z,11.88
2018-12-27T11:17:02.184Z,12.68
2018-12-27T11:19:33.313Z,12.35
2018-12-27T11:22:05.067Z,12.23
2018-12-27T11:24:36.527Z,12.53
2018-12-27T11:27:07.843Z,13.45
2018-12-27T11:29:39.154Z,13.50
2018-12-27T11:32:10.757Z,13.70
2018-12-27T11:34:42.140Z,12.70
2018-12-27T11:37:13.536Z,14.43
2018-12-27T11:39:45.086Z,14.33
2018-12-27T11:42:16.463Z,13.78
2018-12-27T11:44:47.934Z,13.20
2018-12-27T11:47:19.557Z,13.68
2018-12-27T11:49:50.849Z,13.90
2018-12-27T11:52:22.175Z,14.98
2018-12-27T11:54:53.520Z,14.80
2018-12-27T11:57:24.927Z,13.93
2018-12-27T11:59:56.321Z,13.72
2018-12-27T12:02:31.236Z,12.73
2018-12-27T12:05:00.955Z,14.75
2018-12-27T12:07:32.619Z,14.20
2018-12-27T12:10:04.264Z,14.30
2018-12-27T12:12:35.615Z,13.48
2018-12-27T12:15:07.651Z,14.07
2018-12-27T12:17:39.160Z,14.15
2018-12-27T12:20:10.616Z,13.65
2018-12-27T12:22:44.354Z,13.58
2018-12-27T12:25:15.566Z,14.25
2018-12-27T12:27:47.065Z,14.53
2018-12-27T12:30:18.386Z,17.05
2018-12-27T12:32:49.973Z,16.97
2018-12-27T12:35:21.164Z,15.80
2018-12-27T12:37:52.925Z,14.78
2018-12-27T12:40:24.165Z,12.33
2018-12-27T12:42:55.521Z,12.90
2018-12-27T12:45:27.031Z,13.68
2018-12-27T12:47:58.602Z,28.47
2018-12-27T12:50:30.003Z,17.37
2018-12-27T12:53:01.286Z,17.85
2018-12-27T12:55:32.390Z,14.90
2018-12-27T12:58:03.964Z,15.48
2018-12-27T13:00:35.255Z,15.05
2018-12-27T13:03:06.674Z,14.30
2018-12-27T13:05:38.220Z,15.40
2018-12-27T13:08:09.539Z,25.00
2018-12-27T13:10:41.091Z,13.13
2018-12-27T13:13:12.741Z,12.40
2018-12-27T13:15:44.059Z,12.53
2018-12-27T13:18:15.293Z,13.68
2018-12-27T13:20:46.386Z,12.58
2018-12-27T13:23:17.780Z,12.05
2018-12-27T13:25:48.845Z,13.18
2018-12-27T13:28:20.461Z,15.05
2018-12-27T13:30:51.543Z,17.07
2018-12-27T13:33:22.767Z,15.03
2018-12-27T13:35:53.959Z,13.40
2018-12-27T13:38:25.580Z,15.48
2018-12-27T13:40:56.845Z,15.45
2018-12-27T13:43:30.266Z,13.80
2018-12-27T13:46:01.790Z,14.80
2018-12-27T13:48:33.366Z,13.93
2018-12-27T13:51:05.871Z,14.50
2018-12-27T13:53:37.331Z,12.93
2018-12-27T13:56:08.808Z,12.80
2018-12-27T13:58:40.192Z,12.58
2018-12-27T14:01:11.409Z,13.25
2018-12-27T14:03:42.688Z,16.07
2018-12-27T14:06:13.977Z,14.85
2018-12-27T14:08:45.919Z,14.75
2018-12-27T14:11:17.432Z,12.43
2018-12-27T14:13:49.110Z,13.10
2018-12-27T14:16:20.455Z,12.82
2018-12-27T14:18:51.800Z,13.80
2018-12-27T14:21:23.185Z,13.13
2018-12-27T14:23:54.609Z,13.90
2018-12-27T14:26:25.986Z,13.35
2018-12-27T14:28:57.347Z,12.23
2018-12-27T14:31:28.648Z,14.55
2018-12-27T14:34:00.185Z,13.62
2018-12-27T14:36:39.686Z,15.58
2018-12-27T14:39:08.932Z,13.93
2018-12-27T14:41:40.483Z,15.13
2018-12-27T14:44:11.741Z,16.27
2018-12-27T14:46:43.361Z,15.70
2018-12-27T14:49:14.812Z,15.23
2018-12-27T14:51:46.279Z,16.35
2018-12-27T14:54:17.954Z,18.60
2018-12-27T14:56:49.471Z,16.67
2018-12-27T14:59:20.883Z,15.93
2018-12-27T15:01:52.661Z,18.45
2018-12-27T15:04:24.061Z,17.87
2018-12-27T15:06:55.615Z,17.45
2018-12-27T15:09:26.999Z,15.95
2018-12-27T15:11:58.239Z,18.10
2018-12-27T15:14:29.491Z,16.32
2018-12-27T15:17:00.856Z,17.48
2018-12-27T15:19:32.222Z,16.65
2018-12-27T15:22:03.820Z,16.50
2018-12-27T15:24:35.141Z,17.98
2018-12-27T15:27:06.319Z,16.50
2018-12-27T15:29:37.438Z,16.75
2018-12-27T15:32:08.797Z,17.65
2018-12-27T15:34:40.186Z,15.35
2018-12-27T15:37:11.486Z,19.42
2018-12-27T15:39:42.709Z,17.27
2018-12-27T15:42:14.332Z,16.75
2018-12-27T15:44:45.844Z,19.17
2018-12-27T15:47:16.899Z,19.10
2018-12-27T15:49:48.402Z,17.92
2018-12-27T15:52:19.644Z,19.32
2018-12-27T15:54:51.093Z,19.45
2018-12-27T15:57:22.586Z,18.40
2018-12-27T15:59:54.244Z,19.15
2018-12-27T16:02:25.511Z,17.45
2018-12-27T16:04:57.279Z,17.20
2018-12-27T16:07:28.668Z,18.25
2018-12-27T16:09:59.970Z,17.85
2018-12-27T16:12:31.219Z,18.02
2018-12-27T16:15:02.750Z,17.87
2018-12-27T16:17:34.200Z,18.60
2018-12-27T16:20:05.971Z,15.38
2018-12-27T16:22:37.505Z,15.08
2018-12-27T16:25:09.085Z,16.55
2018-12-27T16:27:40.584Z,15.38
2018-12-27T16:30:12.432Z,14.55
2018-12-27T16:32:43.845Z,13.35
2018-12-27T16:35:15.528Z,14.10
2018-12-27T16:37:46.987Z,13.93
2018-12-27T16:40:18.640Z,15.78
2018-12-27T16:42:49.820Z,15.13
2018-12-27T16:45:21.249Z,14.20
2018-12-27T16:47:52.368Z,15.50
2018-12-27T16:50:23.843Z,13.45
2018-12-27T16:52:54.894Z,14.63
2018-12-27T16:55:26.139Z,14.35
2018-12-27T16:57:57.545Z,13.95
2018-12-27T17:00:28.876Z,14.40
2018-12-27T17:03:00.419Z,13.40
2018-12-27T17:05:31.863Z,16.12
2018-12-27T17:08:03.272Z,15.45
2018-12-27T17:10:34.573Z,13.83
2018-12-27T17:13:06.032Z,14.23
2018-12-27T17:15:37.413Z,14.47
2018-12-27T17:18:08.508Z,13.72
2018-12-27T17:20:39.924Z,14.98
2018-12-27T17:23:11.168Z,14.70
2018-12-27T17:25:42.660Z,15.00
2018-12-27T17:28:13.813Z,15.28
2018-12-27T17:30:45.462Z,13.38
2018-12-27T17:33:16.681Z,14.83
2018-12-27T17:35:47.870Z,13.35
2018-12-27T17:38:19.032Z,13.05
2018-12-27T17:40:50.377Z,13.85
2018-12-27T17:43:23.230Z,13.53
2018-12-27T17:45:54.851Z,15.18
2018-12-27T17:48:26.155Z,17.30
2018-12-27T17:50:57.447Z,15.50
2018-12-27T17:53:28.827Z,15.72
2018-12-27T17:56:00.177Z,13.55
2018-12-27T17:58:31.544Z,14.47
2018-12-27T18:01:02.958Z,14.30
2018-12-27T18:03:34.431Z,13.32
2018-12-27T18:06:05.932Z,12.85
2018-12-27T18:08:37.593Z,13.70
2018-12-27T18:11:09.228Z,11.33
2018-12-27T18:13:40.773Z,11.80
2018-12-27T18:16:13.596Z,11.93
2018-12-27T18:18:46.005Z,10.93
2018-12-27T18:21:17.463Z,11.65
2018-12-27T18:23:48.804Z,11.45
2018-12-27T18:26:20.465Z,11.40
2018-12-27T18:28:52.037Z,13.50
2018-12-27T18:31:23.640Z,12.93
2018-12-27T18:33:55.046Z,12.37
2018-12-27T18:36:26.553Z,14.45
2018-12-27T18:38:58.129Z,12.63
2018-12-27T18:41:29.749Z,12.93
2018-12-27T18:44:02.165Z,13.70
2018-12-27T18:46:33.574Z,12.53
2018-12-27T18:49:04.972Z,13.70
2018-12-27T18:51:36.481Z,12.03
2018-12-27T18:54:07.864Z,12.28
2018-12-27T18:56:39.279Z,12.30
2018-12-27T18:59:10.771Z,12.35
2018-12-27T19:01:42.074Z,11.33
2018-12-27T19:04:13.349Z,12.45
2018-12-27T19:06:44.792Z,12.50
2018-12-27T19:09:16.427Z,13.08
2018-12-27T19:12:23.051Z,12.90
2018-12-27T19:14:56.714Z,13.28
2018-12-27T19:17:33.067Z,15.13
2018-12-27T19:20:04.616Z,12.30
2018-12-27T19:22:56.930Z,11.97
2018-12-27T19:25:28.519Z,11.53
2018-12-27T19:27:59.691Z,12.33
2018-12-27T19:30:31.350Z,14.13
2018-12-27T19:33:02.527Z,12.88
2018-12-27T19:35:33.807Z,14.63
2018-12-27T19:38:05.283Z,12.05
2018-12-27T19:40:36.416Z,12.13
2018-12-27T19:43:07.600Z,12.28
2018-12-27T19:45:38.631Z,11.50
2018-12-27T19:48:09.772Z,10.43
2018-12-27T19:50:41.163Z,11.50
2018-12-27T19:53:12.505Z,11.00
2018-12-27T19:55:43.736Z,11.22
2018-12-27T19:58:14.948Z,10.03
2018-12-27T20:00:46.180Z,10.32
2018-12-27T20:03:17.405Z,11.18
2018-12-27T20:05:48.574Z,10.10
2018-12-27T20:08:19.892Z,12.37
2018-12-27T20:10:51.565Z,10.82
2018-12-27T20:13:23.113Z,10.50
2018-12-27T20:15:54.504Z,10.50
2018-12-27T20:18:25.769Z,9.35
2018-12-27T20:20:57.164Z,10.60
2018-12-27T20:23:28.663Z,10.48
2018-12-27T20:26:00.009Z,9.63
2018-12-27T20:28:32.708Z,10.20
2018-12-27T20:31:04.195Z,11.12
2018-12-27T20:33:35.509Z,12.82
2018-12-27T20:36:06.985Z,10.85
2018-12-27T20:38:38.677Z,10.85
2018-12-27T20:41:09.764Z,9.40
2018-12-27T20:43:41.049Z,9.38
2018-12-27T20:46:12.442Z,9.13
2018-12-27T20:48:43.948Z,9.23
2018-12-27T20:51:15.287Z,7.90
2018-12-27T20:53:46.911Z,7.75
2018-12-27T20:56:18.309Z,7.33
2018-12-27T20:58:49.618Z,7.25
2018-12-27T21:01:21.199Z,8.53
2018-12-27T21:03:52.805Z,8.08
2018-12-27T21:06:24.162Z,7.92
2018-12-27T21:08:55.546Z,8.60
2018-12-27T21:11:26.753Z,7.65
2018-12-27T21:13:58.437Z,8.28
2018-12-27T21:16:29.824Z,7.95
2018-12-27T21:19:01.128Z,8.18
2018-12-27T21:21:32.613Z,8.20
2018-12-27T21:24:03.826Z,8.60
2018-12-27T21:26:35.272Z,10.70
2018-12-27T21:29:06.692Z,9.73
2018-12-27T21:31:38.074Z,13.55
2018-12-27T21:34:09.475Z,7.60
2018-12-27T21:36:40.794Z,8.83
2018-12-27T21:39:12.175Z,8.08
2018-12-27T21:41:43.688Z,8.35
2018-12-27T21:44:15.097Z,8.53
2018-12-27T21:46:46.224Z,8.63
2018-12-27T21:49:17.512Z,8.33
2018-12-27T21:51:48.907Z,7.60
2018-12-27T21:54:20.327Z,7.75
2018-12-27T21:56:51.969Z,27.37
2018-12-27T21:59:23.107Z,8.43
2018-12-27T22:01:54.358Z,7.40
2018-12-27T22:04:25.679Z,6.78
2018-12-27T22:06:57.081Z,10.15
2018-12-27T22:09:28.692Z,6.78
2018-12-27T22:12:00.013Z,7.70
2018-12-27T22:14:31.218Z,6.97
2018-12-27T22:17:02.260Z,6.83
2018-12-27T22:19:33.447Z,7.03
2018-12-27T22:22:04.506Z,7.25
2018-12-27T22:24:35.978Z,7.25
2018-12-27T22:27:07.013Z,7.17
2018-12-27T22:29:38.095Z,7.95
2018-12-27T22:32:09.486Z,7.55
2018-12-27T22:34:40.813Z,8.35
2018-12-27T22:37:12.102Z,8.53
2018-12-27T22:39:43.526Z,9.28
2018-12-27T22:42:14.756Z,9.60
2018-12-27T22:44:46.193Z,10.38
2018-12-27T22:47:17.482Z,9.43
2018-12-27T22:49:49.048Z,8.93
2018-12-27T22:52:20.614Z,8.93
2018-12-27T22:54:52.227Z,10.32
2018-12-27T22:57:23.692Z,9.93
2018-12-27T22:59:55.176Z,9.78
2018-12-27T23:02:26.538Z,9.60
2018-12-27T23:04:57.850Z,9.53
2018-12-27T23:07:29.246Z,9.75
2018-12-27T23:10:00.537Z,10.08
2018-12-27T23:12:32.084Z,10.10
2018-12-27T23:15:03.305Z,9.50
2018-12-27T23:17:34.814Z,9.65
2018-12-27T23:20:06.575Z,7.78
2018-12-27T23:22:38.121Z,8.38
2018-12-27T23:25:09.523Z,8.88
2018-12-27T23:27:40.893Z,8.03
2018-12-27T23:30:13.521Z,9.08
2018-12-27T23:32:44.751Z,9.30
2018-12-27T23:35:16.262Z,8.65
2018-12-27T23:37:47.657Z,8.33
2018-12-27T23:40:19.041Z,8.20
2018-12-27T23:42:50.447Z,8.38
2018-12-27T23:45:21.663Z,7.53
2018-12-27T23:47:52.844Z,7.50
2018-12-27T23:50:24.579Z,7.72
2018-12-27T23:52:56.002Z,7.12
2018-12-27T23:55:27.489Z,7.58
2018-12-27T23:57:58.758Z,7.47
